• Join FlightAware (Why Join?)
  • Login
  • US Flag 
05:17AM EDT


 

Airport Tracker/Info


-or-


 

Live Flight TrackerFlight Track Log ✈ BAW2648 ✈ 16-Jul-2013 ✈ EGKK / LGW - LATI / TIA

Flight Track Log - Related Links

Times and Time Zones

All times are in EDT time to prevent confusion due to time zone crossing. See the BAW2648 flight status page for this flight to view local times or setup timezone preferences in your user account.

Time Position Orientation Groundspeed Altitude Reporting Facility
EDT Latitude Longitude Course Direction KTS MPH feet Rate Location/Type
08:02AM 51.1420 -0.2357 91° East 174 200 1,300  Level FlightAware UK
08:02AM 51.1420 -0.2340 257° West 170 196 1,400 1,500 Climbing FlightAware
08:02AM 51.1380 -0.2680 259° West 196 226 2,000 1,380 Climbing FlightAware
08:02AM 51.1390 -0.2920 274° West 210 242 2,400 1,860 Climbing FlightAware
08:03AM 51.1470 -0.3060 312° West 209 241 2,900 2,460 Climbing FlightAware
08:03AM 51.1590 -0.3120 343° North 213 245 3,400 2,100 Climbing FlightAware
08:03AM 51.1850 -0.2949 22° Northeast 224 258 4,300 1,800 Climbing FlightAware ADS-B
08:03AM 51.1886 -0.2908 35° Northeast 229 264 4,400 600 Climbing FlightAware ADS-B
08:03AM 51.1928 -0.2848 42° Northeast 240 276 4,400  Level FlightAware ADS-B
08:03AM 51.1959 -0.2790 50° Northeast 246 283 4,400 720 Level FlightAware ADS-B
08:03AM 51.1981 -0.2729 60° Northeast 254 292 4,500 1,080 Climbing FlightAware ADS-B
08:04AM 51.2022 -0.2514 73° East 263 303 4,700 1,800 Climbing FlightAware ADS-B
08:04AM 51.2020 -0.2291 91° East 278 320 5,200 3,060 Climbing FlightAware ADS-B
08:04AM 51.1992 -0.1967 98° East 278 320 6,100 3,120 Climbing FlightAware ADS-B
08:04AM 51.1956 -0.1592 99° East 279 321 7,000 3,000 Climbing FlightAware ADS-B
08:05AM 51.1924 -0.1268 99° East 281 323 7,800 2,760 Climbing FlightAware ADS-B
08:05AM 51.1892 -0.0942 99° East 287 330 8,500 2,100 Climbing FlightAware ADS-B
08:05AM 51.1858 -0.0620 100° East 289 333 8,900 960 Climbing FlightAware ADS-B
08:05AM 51.1824 -0.0296 100° East 290 334 9,000 720 Climbing FlightAware ADS-B
08:06AM 51.1787 0.0060 99° East 288 331 9,300 1,380 Climbing FlightAware ADS-B
08:06AM 51.1750 0.0407 100° East 293 337 9,800 1,560 Climbing FlightAware ADS-B
08:06AM 51.1715 0.0869 97° East 297 342 10,300 1,440 Climbing FlightAware ADS-B
08:07AM 51.1723 0.1687 89° East 329 379 11,200 1,320 Climbing FlightAware ADS-B
08:08AM 51.1740 0.2576 88° East 359 413 11,900 1,620 Climbing FlightAware ADS-B
08:08AM 51.1752 0.3401 89° East 368 423 13,000 2,220 Climbing FlightAware ADS-B
08:09AM 51.1763 0.4269 89° East 374 430 14,200 2,160 Climbing FlightAware ADS-B
08:09AM 51.1776 0.5131 89° East 378 435 15,300 1,920 Climbing FlightAware ADS-B
08:10AM 51.1790 0.5982 88° East 389 448 16,200 1,560 Climbing FlightAware ADS-B
08:10AM 51.1807 0.6878 88° East 399 459 16,900 1,740 Climbing FlightAware ADS-B
08:11AM 51.1831 0.7774 88° East 401 461 18,000 2,100 Climbing FlightAware ADS-B
08:11AM 51.1854 0.8664 88° East 404 465 19,000 1,740 Climbing FlightAware ADS-B
08:12AM 51.1875 0.9588 88° East 412 474 19,800 1,560 Climbing FlightAware ADS-B
08:12AM 51.1889 1.0506 89° East 418 481 20,600 1,560 Climbing FlightAware ADS-B
08:13AM 51.1902 1.1540 89° East 423 487 21,500 1,560 Climbing FlightAware ADS-B
08:13AM 51.1899 1.2006 91° East 423 487 21,900 1,500 Climbing FlightAware ADS-B
08:14AM 51.1842 1.3032 95° East 426 490 22,700 1,320 Climbing FlightAware ADS-B
08:14AM 51.1784 1.3990 95° East 431 496 23,300 1,080 Climbing FlightAware ADS-B
08:14AM 51.1733 1.4685 97° East 435 501 23,700 960 Climbing FlightAware ADS-B
08:15AM 51.1603 1.5701 101° East 441 507 24,200 1,020 Climbing FlightAware ADS-B
08:15AM 51.1464 1.6700 102° East 447 514 24,800 1,020 Climbing FlightAware ADS-B
08:16AM 51.1330 1.7630 103° East 449 517 25,300 1,020 Climbing FlightAware
08:16AM 51.1282 1.8002 102° East 451 519 25,500 1,200 Climbing FlightAware ADS-B
08:17AM 51.1147 1.9007 102° East 453 521 26,100 1,140 Climbing FlightAware ADS-B
08:17AM 51.0970 2.0310 102° East 454 522 26,900 1,020 Climbing FlightAware
08:18AM 51.0800 2.1610 102° East 459 528 27,500 900 Climbing FlightAware
08:19AM 51.0565 2.3324 102° East 460 529 28,300 900 Climbing FlightAware UK
08:19AM 51.0560 2.3450 102° East 462 532 28,400 540 Climbing FlightAware
08:20AM 51.0260 2.5767 102° East 464 534 29,000 480 Climbing FlightAware UK
08:20AM 51.0270 2.5740 102° East 479 551 29,000 840 Level FlightAware
08:21AM 51.0083 2.7231 102° East 466 536 29,600 840 Climbing FlightAware UK
08:21AM 51.0090 2.7230 102° East 483 556 29,600 1,620 Level FlightAware
08:21AM 50.9934 2.8481 102° East 458 527 30,600 1,620 Climbing FlightAware UK
08:21AM 50.9910 2.8740 102° East 473 544 30,800 1,500 Climbing FlightAware
08:22AM 50.9780 3.0040 99° East 467 537 31,800 1,320 Climbing FlightAware
08:23AM 50.9674 3.1123 99° East 454 522 32,300 1,140 Climbing FlightAware UK
08:23AM 50.9640 3.1450 99° East 461 531 32,600 1,200 Climbing FlightAware
08:23AM 50.9450 3.2690 104° East 456 525 33,300 960 Climbing FlightAware
08:24AM 50.9270 3.3820 104° East 455 524 33,800 420 Climbing FlightAware
08:25AM 50.8976 3.5603 104° East 454 522 34,000 180 Climbing FlightAware UK
08:25AM 50.8970 3.5640 104° East 459 528 34,000 780 Level FlightAware
08:26AM 50.8760 3.6910 105° East 455 524 34,600 660 Climbing FlightAware
08:26AM 50.8520 3.8350 105° East 457 526 35,000 240 Climbing FlightAware
08:27AM 50.8270 3.9770 106° East 463 533 35,000  Level FlightAware
08:28AM 50.8050 4.1070 105° East 459 528 35,000  Level FlightAware
08:29AM 50.7810 4.2480 105° East 458 527 35,000  Level FlightAware
08:29AM 50.7580 4.3750 106° East 457 526 35,000  Level FlightAware
08:30AM 50.7330 4.5180 105° East 457 526 35,000  Level FlightAware
08:31AM 50.7010 4.6400 112° Southeast 451 519 35,000  Level FlightAware
08:31AM 50.6570 4.7510 122° Southeast 448 516 35,000  Level FlightAware
08:32AM 50.6080 4.8720 123° Southeast 449 517 35,000  Level FlightAware
08:33AM 50.5640 4.9820 122° Southeast 451 519 35,000  Level FlightAware
08:33AM 50.5140 5.1050 123° Southeast 452 520 35,000  Level FlightAware
08:34AM 50.4690 5.2150 123° Southeast 452 520 35,000  Level FlightAware
08:35AM 50.4240 5.3340 121° Southeast 458 527 35,000  Level FlightAware
08:35AM 50.3960 5.4600 109° East 464 534 35,000  Level FlightAware
08:36AM 50.3670 5.6110 107° East 464 534 35,000  Level FlightAware
08:37AM 50.3450 5.7280 106° East 463 533 35,000  Level FlightAware
08:38AM 50.3190 5.8630 107° East 462 532 35,000  Level FlightAware
08:38AM 50.2900 6.0100 107° East 462 532 35,000  Level FlightAware
08:39AM 50.2630 6.1460 107° East 463 533 35,000  Level FlightAware
08:40AM 50.2420 6.2570 106° East 462 532 35,000  Level FlightAware
08:40AM 50.2130 6.3990 108° East 461 531 35,000  Level FlightAware
08:41AM 50.1860 6.5380 107° East 459 528 35,000  Level FlightAware
08:42AM 50.1580 6.6780 107° East 459 528 35,000  Level FlightAware
08:42AM 50.1310 6.8070 108° East 459 528 35,000  Level FlightAware
08:43AM 50.1040 6.9420 107° East 459 528 35,000  Level FlightAware
08:44AM 50.0830 7.0460 107° East 459 528 35,000  Level FlightAware
08:44AM 50.0540 7.1860 108° East 460 529 35,000  Level FlightAware
08:45AM 50.0280 7.3120 108° East 460 529 35,000  Level FlightAware
08:46AM 50.0010 7.4400 108° East 460 529 35,000  Level FlightAware
08:46AM 49.9760 7.5580 108° East 460 529 35,000  Level FlightAware
08:47AM 49.9500 7.6820 108° East 461 531 35,000  Level FlightAware
08:48AM 49.9240 7.8060 108° East 462 532 35,000  Level FlightAware
08:48AM 49.8960 7.9340 109° East 462 532 35,000  Level FlightAware
08:49AM 49.8720 8.0460 108° East 462 532 35,000  Level FlightAware
08:50AM 49.8480 8.1590 108° East 463 533 35,000  Level FlightAware
08:50AM 49.8130 8.2960 112° Southeast 460 529 35,000  Level FlightAware
08:51AM 49.7570 8.4090 127° Southeast 455 524 35,000  Level FlightAware
08:52AM 49.6890 8.4830 145° Southeast 451 519 35,000  Level FlightAware
08:53AM 49.6100 8.5550 149° Southeast 450 518 35,000  Level FlightAware
08:53AM 49.5310 8.6250 150° Southeast 449 517 35,000  Level FlightAware
08:54AM 49.4550 8.6780 156° South 448 516 35,000  Level FlightAware
08:55AM 49.3750 8.7320 156° South 448 516 35,000  Level FlightAware
08:55AM 49.3210 8.7680 157° South 448 516 35,000  Level FlightAware
08:56AM 49.2380 8.8230 157° South 448 516 35,000  Level FlightAware
08:57AM 49.1570 8.8770 156° South 440 506 35,000  Level FlightAware
08:57AM 49.0820 8.9260 157° South 440 506 35,000  Level FlightAware
08:58AM 48.9950 8.9840 156° South 440 506 35,000  Level FlightAware
08:59AM 48.9190 9.0330 157° South 440 506 35,000  Level FlightAware
08:59AM 48.8350 9.0880 157° South 442 509 35,000  Level FlightAware
09:00AM 48.7360 9.1520 157° South 451 519 35,000  Level FlightAware
09:01AM 48.6630 9.2000 157° South 452 520 35,000  Level FlightAware
09:02AM 48.5880 9.2480 157° South 452 520 35,000  Level FlightAware
09:02AM 48.5060 9.3010 157° South 452 520 35,000  Level FlightAware
09:03AM 48.4170 9.3580 157° South 451 519 35,000  Level FlightAware
09:04AM 48.3490 9.4020 157° South 451 519 35,000  Level FlightAware
09:04AM 48.2700 9.4640 152° Southeast 453 521 35,000  Level FlightAware
09:05AM 48.1910 9.5460 145° Southeast 454 522 35,000  Level FlightAware
09:06AM 48.1200 9.6210 145° Southeast 454 522 35,000  Level FlightAware
09:07AM 48.0380 9.7060 145° Southeast 454 522 35,000  Level FlightAware
09:07AM 47.9730 9.7750 145° Southeast 453 521 35,000  Level FlightAware
09:08AM 47.9160 9.8350 145° Southeast 453 521 35,000  Level FlightAware
09:09AM 47.8320 9.9210 145° Southeast 453 521 35,000  Level FlightAware
09:09AM 47.7660 9.9900 145° Southeast 451 519 35,000  Level FlightAware
09:10AM 47.6880 10.0700 145° Southeast 452 520 35,000  Level FlightAware
09:11AM 47.6150 10.1440 146° Southeast 450 518 35,000  Level FlightAware
09:12AM 47.5210 10.2410 145° Southeast 449 517 35,000  Level FlightAware
09:13AM 47.4150 10.3480 146° Southeast 450 518 35,000  Level FlightAware
09:13AM 47.3500 10.4140 145° Southeast 451 519 35,000  Level FlightAware
09:14AM 47.2690 10.4960 146° Southeast 452 520 35,000  Level FlightAware
09:15AM 47.2030 10.5620 146° Southeast 454 522 35,000  Level FlightAware
09:15AM 47.1280 10.6380 145° Southeast 455 524 35,000  Level FlightAware
09:16AM 47.0700 10.6960 146° Southeast 455 524 35,000  Level FlightAware
09:17AM 46.9870 10.7630 151° Southeast 458 527 35,000  Level FlightAware
09:17AM 46.9220 10.8350 143° Southeast 451 519 35,000  Level FlightAware
09:18AM 46.8720 10.9140 133° Southeast 455 524 35,000  Level FlightAware
09:19AM 46.8080 11.0170 132° Southeast 455 524 35,000  Level FlightAware
09:19AM 46.7520 11.1070 132° Southeast 455 524 35,000  Level FlightAware
09:20AM 46.6890 11.2070 133° Southeast 457 526 35,000  Level FlightAware
09:21AM 46.6380 11.2870 133° Southeast 458 527 35,000  Level FlightAware
09:21AM 46.5740 11.3880 133° Southeast 453 521 35,000  Level FlightAware
09:22AM 46.5150 11.4820 132° Southeast 454 522 35,000 60 Level FlightAware
09:23AM 46.4460 11.5900 133° Southeast 453 521 35,100 420 Climbing FlightAware
09:24AM 46.3870 11.6820 133° Southeast 455 524 35,700 900 Climbing FlightAware
09:24AM 46.3220 11.7840 133° Southeast 452 520 36,400 720 Climbing FlightAware
09:25AM 46.2740 11.8580 133° Southeast 452 520 36,700 480 Climbing FlightAware
09:26AM 46.2160 11.9480 133° Southeast 447 514 37,000 180 Climbing FlightAware
09:26AM 46.1530 12.0450 133° Southeast 447 514 37,000  Level FlightAware
09:27AM 46.0880 12.1460 133° Southeast 444 511 37,000  Level FlightAware
09:28AM 46.0380 12.2380 128° Southeast 442 509 37,000  Level FlightAware
09:28AM 45.9900 12.3320 126° Southeast 441 507 37,000  Level FlightAware
09:29AM 45.9330 12.4400 127° Southeast 441 507 37,000  Level FlightAware
09:30AM 45.8780 12.5470 126° Southeast 441 507 37,000  Level FlightAware
09:32AM 45.7670 12.7580 127° Southeast 440 506 37,000  Level FlightAware
09:33AM 45.6740 12.9330 127° Southeast 440 506 37,000  Level FlightAware
09:33AM 45.6180 13.0380 127° Southeast 442 509 37,000  Level FlightAware
09:34AM 45.5680 13.1320 127° Southeast 447 514 37,000  Level FlightAware
09:35AM 45.5180 13.2260 127° Southeast 441 507 37,000  Level FlightAware
09:36AM 45.4610 13.3310 128° Southeast 446 513 37,000  Level FlightAware
09:36AM 45.4110 13.4230 128° Southeast 450 518 37,000  Level FlightAware
09:37AM 45.3600 13.5180 127° Southeast 450 518 37,000  Level FlightAware
09:38AM 45.3020 13.6250 128° Southeast 450 518 37,000  Level FlightAware
09:38AM 45.2510 13.7180 128° Southeast 449 517 37,000  Level FlightAware
09:39AM 45.2020 13.8080 128° Southeast 450 518 37,000  Level FlightAware
09:40AM 45.1440 13.9140 128° Southeast 450 518 37,000  Level FlightAware
09:40AM 45.0920 14.0080 128° Southeast 450 518 37,000  Level FlightAware
09:41AM 45.0480 14.0880 128° Southeast 451 519 37,000  Level FlightAware
09:42AM 44.9900 14.1930 128° Southeast 448 516 37,000  Level FlightAware
09:42AM 44.9380 14.2860 128° Southeast 448 516 37,000  Level FlightAware
09:43AM 44.8930 14.3660 128° Southeast 450 518 37,000  Level FlightAware
09:44AM 44.8200 14.4960 128° Southeast 451 519 37,000  Level FlightAware
09:45AM 44.7610 14.6010 128° Southeast 452 520 37,000  Level FlightAware
09:45AM 44.7090 14.6940 128° Southeast 453 521 37,000  Level FlightAware
09:46AM 44.6500 14.7980 129° Southeast 453 521 37,000  Level FlightAware
09:47AM 44.5970 14.8910 129° Southeast 451 519 37,000  Level FlightAware
09:48AM 44.5250 15.0180 128° Southeast 454 522 37,000  Level FlightAware
09:48AM 44.4810 15.0960 128° Southeast 463 533 37,000  Level FlightAware
09:49AM 44.4270 15.1890 129° Southeast 463 533 37,000  Level FlightAware
09:50AM 44.3650 15.2970 129° Southeast 463 533 37,000  Level FlightAware
09:50AM 44.3260 15.3640 129° Southeast 465 535 37,000  Level FlightAware
09:51AM 44.2680 15.4640 129° Southeast 467 537 37,000 60 Level FlightAware
09:52AM 44.2130 15.5590 129° Southeast 465 535 37,100  Climbing FlightAware
09:52AM 44.1600 15.6500 129° Southeast 460 529 37,000 -120 Descending FlightAware
09:53AM 44.1000 15.7520 129° Southeast 457 526 37,000  Level FlightAware
09:54AM 44.0340 15.8650 129° Southeast 456 525 37,000  Level FlightAware
09:54AM 43.9800 15.9560 129° Southeast 457 526 37,000  Level FlightAware
09:55AM 43.9270 16.0450 130° Southeast 457 526 37,000  Level FlightAware
09:56AM 43.8670 16.1470 129° Southeast 458 527 37,000  Level FlightAware
09:57AM 43.8120 16.2400 129° Southeast 461 531 37,000 60 Level FlightAware
09:57AM 43.7510 16.3420 130° Southeast 461 531 37,100 60 Climbing FlightAware
09:58AM 43.6970 16.4320 130° Southeast 460 529 37,100 -120 Level FlightAware
09:59AM 43.6350 16.5350 130° Southeast 461 531 37,000 -120 Descending FlightAware
09:59AM 43.5800 16.6270 130° Southeast 462 532 37,000  Level FlightAware
10:00AM 43.5250 16.7170 130° Southeast 463 533 37,000  Level FlightAware
10:01AM 43.4690 16.8100 130° Southeast 464 534 37,000  Level FlightAware
10:01AM 43.4060 16.9140 130° Southeast 462 532 37,000  Level FlightAware
10:02AM 43.3600 16.9880 131° Southeast 460 529 37,000  Level FlightAware
10:03AM 43.2970 17.0920 130° Southeast 462 532 37,000  Level FlightAware
10:03AM 43.2400 17.1850 130° Southeast 469 540 37,000  Level FlightAware
10:04AM 43.1940 17.2590 130° Southeast 474 545 37,000  Level FlightAware
10:05AM 43.1340 17.3550 131° Southeast 477 549 37,000  Level FlightAware
10:05AM 43.0700 17.4580 130° Southeast 477 549 37,000 60 Level FlightAware
10:06AM 43.0140 17.5480 130° Southeast 475 547 37,100 60 Climbing FlightAware
10:07AM 42.9560 17.6410 130° Southeast 471 542 37,100 -120 Level FlightAware
10:07AM 42.8940 17.7400 131° Southeast 468 539 37,000 -180 Descending FlightAware
10:08AM 42.8370 17.8300 131° Southeast 468 539 36,900 -840 Descending FlightAware
10:09AM 42.7790 17.9220 131° Southeast 467 537 35,900 -1,500 Descending FlightAware
10:10AM 42.7170 18.0210 130° Southeast 459 528 34,800 -1,560 Descending FlightAware
10:10AM 42.6540 18.1200 131° Southeast 461 531 33,600 -960 Descending FlightAware
10:11AM 42.5870 18.2270 130° Southeast 461 531 33,300 -1,620 Descending FlightAware
10:12AM 42.5070 18.3410 134° Southeast 454 522 30,900 -2,400 Descending FlightAware
10:13AM 42.4440 18.4260 135° Southeast 446 513 29,700 -1,920 Descending FlightAware
10:13AM 42.3810 18.5110 135° Southeast 439 505 28,200 -2,040 Descending FlightAware
10:14AM 42.3200 18.5930 135° Southeast 429 494 26,800 -1,680 Descending FlightAware
10:15AM 42.2580 18.6760 135° Southeast 421 484 25,400 -720 Descending FlightAware
10:17AM 42.1570 18.8120 135° Southeast 419 482 25,200 -2,160 Descending FlightAware
10:17AM 42.0740 18.9220 135° Southeast 393 452 21,000 -4,140 Descending FlightAware
10:18AM 42.0240 18.9870 136° Southeast 388 447 19,700 -1,320 Descending FlightAware
10:19AM 41.9220 19.1230 135° Southeast 385 443 18,200 -720 Descending FlightAware
10:20AM 41.8820 19.1760 135° Southeast 385 443 18,200  Level FlightAware
10:21AM 41.8300 19.2470 134° Southeast 385 443 18,200  Level FlightAware
10:21AM 41.7910 19.2980 136° Southeast 385 443 18,200  Level FlightAware
10:22AM 41.7270 19.3840 135° Southeast 385 443 18,200  Level FlightAware
10:25AM 41.5597 19.5649 141° Southeast  Level Estimated
10:26AM 41.4805 19.6501 141° Southeast  Level Estimated
10:27AM 41.4147 19.7206 141° Southeast  Level Estimated
10:28AM 41.4147 19.7206 21° North  Level Estimated
10:29AM 41.4147 19.7206 21° North  Level Estimated
10:30AM 41.4147 19.7206 21° North  Level Estimated
10:31AM 41.4147 19.7206 21° North  Level Estimated
10:32AM 41.4147 19.7206 21° North  Level Estimated
10:33AM 41.4147 19.7206 21° North  Level Estimated
10:34AM 41.4147 19.7206 21° North  Level Estimated
10:35AM 41.4147 19.7206 21° North  Level Estimated
10:36AM 41.4147 19.7206 21° North  Level Estimated
10:37AM 41.4147 19.7206 21° North  Level Estimated
10:38AM 41.4147 19.7206 21° North  Level Estimated